createdAt,value
2024-02-19T00:01:00.774Z,100.00
2024-02-19T00:03:47.034Z,100.00
2024-02-19T00:06:14.611Z,100.00
2024-02-19T00:08:42.417Z,100.00
2024-02-19T00:11:09.934Z,99.60
2024-02-19T00:13:38.720Z,98.85
2024-02-19T00:16:06.495Z,98.82
2024-02-19T00:18:34.539Z,98.43
2024-02-19T00:21:02.027Z,97.74
2024-02-19T00:23:30.297Z,98.21
2024-02-19T00:25:57.676Z,95.56
2024-02-19T00:28:25.490Z,95.67
2024-02-19T00:30:53.162Z,95.94
2024-02-19T00:33:21.482Z,96.59
2024-02-19T00:35:49.205Z,94.31
2024-02-19T00:38:16.896Z,95.04
2024-02-19T00:40:44.359Z,95.67
2024-02-19T00:43:12.512Z,95.06
2024-02-19T00:45:39.960Z,98.26
2024-02-19T00:48:07.855Z,97.59
2024-02-19T00:50:35.312Z,94.10
2024-02-19T00:53:02.971Z,98.10
2024-02-19T00:55:30.418Z,99.19
2024-02-19T00:57:58.198Z,98.32
2024-02-19T01:00:27.570Z,99.95
2024-02-19T01:02:55.439Z,100.00
2024-02-19T01:05:23.107Z,100.00
2024-02-19T01:07:50.840Z,100.00
2024-02-19T01:10:18.578Z,100.00
2024-02-19T01:12:46.470Z,98.90
2024-02-19T01:15:13.992Z,99.97
2024-02-19T01:17:41.725Z,100.00
2024-02-19T01:20:10.916Z,100.00
2024-02-19T01:22:40.153Z,100.00
2024-02-19T01:25:07.861Z,100.00
2024-02-19T01:27:35.814Z,100.00
2024-02-19T01:30:03.278Z,100.00
2024-02-19T01:32:31.059Z,100.00
2024-02-19T01:34:58.778Z,100.00
2024-02-19T01:37:26.636Z,99.50
2024-02-19T01:39:54.346Z,100.00
2024-02-19T01:42:22.095Z,98.23
2024-02-19T01:44:49.520Z,100.00
2024-02-19T01:47:19.352Z,98.75
2024-02-19T01:49:46.783Z,96.36
2024-02-19T01:52:14.607Z,99.60
2024-02-19T01:54:42.334Z,98.19
2024-02-19T01:57:10.382Z,99.77
2024-02-19T01:59:39.079Z,99.98
2024-02-19T02:02:07.032Z,100.00
2024-02-19T02:04:35.577Z,100.00
2024-02-19T02:07:04.439Z,100.00
2024-02-19T02:09:31.842Z,100.00
2024-02-19T02:11:59.745Z,100.00
2024-02-19T02:14:27.390Z,99.95
2024-02-19T02:16:55.271Z,100.00
2024-02-19T02:19:23.339Z,100.00
2024-02-19T02:21:51.162Z,100.00
2024-02-19T02:24:20.656Z,99.38
2024-02-19T02:26:48.511Z,99.24
2024-02-19T02:29:16.009Z,100.00
2024-02-19T02:31:43.722Z,100.00
2024-02-19T02:34:11.275Z,100.00
2024-02-19T02:36:41.707Z,100.00
2024-02-19T02:39:09.291Z,99.46
2024-02-19T02:41:37.181Z,100.00
2024-02-19T02:44:04.586Z,100.00
2024-02-19T02:46:32.280Z,99.83
2024-02-19T02:48:59.930Z,100.00
2024-02-19T02:51:27.733Z,100.00
2024-02-19T02:53:55.140Z,100.00
2024-02-19T02:56:23.317Z,100.00
2024-02-19T02:58:51.588Z,100.00
2024-02-19T03:01:21.501Z,100.00
2024-02-19T03:03:49.173Z,100.00
2024-02-19T03:06:17.013Z,100.00
2024-02-19T03:08:45.054Z,100.00
2024-02-19T03:11:13.980Z,100.00
2024-02-19T03:13:41.385Z,100.00
2024-02-19T03:16:09.428Z,100.00
2024-02-19T03:18:37.114Z,100.00
2024-02-19T03:21:09.292Z,100.00
2024-02-19T03:23:36.750Z,100.00
2024-02-19T03:26:05.827Z,100.00
2024-02-19T03:28:34.342Z,100.00
2024-02-19T03:31:02.552Z,100.00
2024-02-19T03:33:30.081Z,100.00
2024-02-19T03:35:57.719Z,100.00
2024-02-19T03:38:25.917Z,100.00
2024-02-19T03:40:53.681Z,99.02
2024-02-19T03:43:21.208Z,100.00
2024-02-19T03:45:51.837Z,99.28
2024-02-19T03:48:19.432Z,100.00
2024-02-19T03:50:47.214Z,100.00
2024-02-19T03:53:14.642Z,100.00
2024-02-19T03:55:42.444Z,100.00
2024-02-19T03:58:09.832Z,100.00
2024-02-19T04:00:37.652Z,100.00
2024-02-19T04:03:05.504Z,100.00
2024-02-19T04:05:33.592Z,100.00
2024-02-19T04:08:01.128Z,100.00
2024-02-19T04:10:28.929Z,100.00
2024-02-19T04:12:56.351Z,100.00
2024-02-19T04:15:23.994Z,100.00
2024-02-19T04:17:51.554Z,100.00
2024-02-19T04:20:19.460Z,100.00
2024-02-19T04:22:46.831Z,100.00
2024-02-19T04:25:15.527Z,100.00
2024-02-19T04:27:43.004Z,100.00
2024-02-19T04:30:11.009Z,100.00
2024-02-19T04:32:38.615Z,100.00
2024-02-19T04:35:07.001Z,100.00
2024-02-19T04:37:34.413Z,100.00
2024-02-19T04:40:04.098Z,100.00
2024-02-19T04:42:31.594Z,100.00
2024-02-19T04:44:59.306Z,100.00
2024-02-19T04:47:26.754Z,100.00
2024-02-19T04:49:54.833Z,100.00
2024-02-19T04:52:22.552Z,100.00
2024-02-19T04:54:50.366Z,100.00
2024-02-19T04:57:17.780Z,100.00
2024-02-19T04:59:45.548Z,100.00
2024-02-19T05:02:13.319Z,100.00
2024-02-19T05:04:41.610Z,100.00
2024-02-19T05:07:09.211Z,100.00
2024-02-19T05:09:37.354Z,100.00
2024-02-19T05:12:05.660Z,100.00
2024-02-19T05:14:33.358Z,100.00
2024-02-19T05:17:01.896Z,100.00
2024-02-19T05:19:29.840Z,100.00
2024-02-19T05:21:57.392Z,100.00
2024-02-19T05:24:25.138Z,100.00
2024-02-19T05:26:52.603Z,100.00
2024-02-19T05:29:21.120Z,100.00
2024-02-19T05:31:48.550Z,100.00
2024-02-19T05:34:17.031Z,100.00
2024-02-19T05:36:44.488Z,100.00
2024-02-19T05:39:12.474Z,100.00
2024-02-19T05:41:40.818Z,100.00
2024-02-19T05:44:08.783Z,100.00
2024-02-19T05:46:36.826Z,100.00
2024-02-19T05:49:04.833Z,100.00
2024-02-19T05:51:32.494Z,100.00
2024-02-19T05:54:00.228Z,100.00
2024-02-19T05:56:30.050Z,100.00
2024-02-19T05:58:57.893Z,100.00
2024-02-19T06:01:25.474Z,100.00
2024-02-19T06:03:53.358Z,100.00
2024-02-19T06:06:21.162Z,100.00
2024-02-19T06:08:48.848Z,100.00
2024-02-19T06:11:16.335Z,100.00
2024-02-19T06:13:44.205Z,100.00
2024-02-19T06:16:11.630Z,100.00
2024-02-19T06:18:39.506Z,100.00
2024-02-19T06:21:06.934Z,100.00
2024-02-19T06:23:34.594Z,100.00
2024-02-19T06:26:02.092Z,100.00
2024-02-19T06:28:29.865Z,100.00
2024-02-19T06:30:57.371Z,100.00
2024-02-19T06:33:25.462Z,100.00
2024-02-19T06:35:52.843Z,100.00
2024-02-19T06:38:20.756Z,100.00
2024-02-19T06:40:48.632Z,100.00
2024-02-19T06:43:17.246Z,100.00
2024-02-19T06:45:44.722Z,100.00
2024-02-19T06:48:12.675Z,100.00
2024-02-19T06:50:40.922Z,100.00
2024-02-19T06:53:08.694Z,100.00
2024-02-19T06:55:36.240Z,100.00
2024-02-19T06:58:04.188Z,100.00
2024-02-19T07:00:31.639Z,100.00
2024-02-19T07:02:59.357Z,100.00
2024-02-19T07:05:27.052Z,100.00
2024-02-19T07:07:54.889Z,100.00
2024-02-19T07:10:22.368Z,100.00
2024-02-19T07:12:50.112Z,100.00
2024-02-19T07:15:17.714Z,100.00
2024-02-19T07:17:46.306Z,100.00
2024-02-19T07:20:14.294Z,100.00
2024-02-19T07:22:42.079Z,100.00
2024-02-19T07:25:16.977Z,100.00
2024-02-19T07:27:49.070Z,100.00
2024-02-19T07:30:17.272Z,100.00
2024-02-19T07:32:45.098Z,100.00
2024-02-19T07:35:12.791Z,100.00
2024-02-19T07:37:40.815Z,100.00
2024-02-19T07:40:09.057Z,100.00
2024-02-19T07:42:38.161Z,100.00
2024-02-19T07:45:09.105Z,100.00
2024-02-19T07:47:37.059Z,100.00
2024-02-19T07:50:05.051Z,100.00
2024-02-19T07:52:32.832Z,100.00
2024-02-19T07:55:00.395Z,100.00
2024-02-19T07:57:28.277Z,100.00
2024-02-19T07:59:55.777Z,100.00
2024-02-19T08:02:23.548Z,100.00
2024-02-19T08:04:51.134Z,100.00
2024-02-19T08:07:19.934Z,100.00
2024-02-19T08:09:47.550Z,100.00
2024-02-19T08:12:15.428Z,100.00
2024-02-19T08:14:42.880Z,100.00
2024-02-19T08:17:10.644Z,100.00
2024-02-19T08:19:38.253Z,100.00
2024-02-19T08:22:06.141Z,100.00
2024-02-19T08:24:33.621Z,100.00
2024-02-19T08:27:01.306Z,100.00
2024-02-19T08:29:30.336Z,100.00
2024-02-19T08:31:58.982Z,100.00
2024-02-19T08:34:27.027Z,100.00
2024-02-19T08:36:55.016Z,100.00
2024-02-19T08:39:22.573Z,100.00
2024-02-19T08:41:50.573Z,100.00
2024-02-19T08:44:17.945Z,100.00
2024-02-19T08:46:45.825Z,100.00
2024-02-19T08:49:13.350Z,100.00
2024-02-19T08:51:41.430Z,100.00
2024-02-19T08:54:09.792Z,100.00
2024-02-19T08:56:37.673Z,100.00
2024-02-19T08:59:05.565Z,100.00
2024-02-19T09:01:33.575Z,100.00
2024-02-19T09:04:01.304Z,100.00
2024-02-19T09:06:29.180Z,100.00
2024-02-19T09:08:56.818Z,100.00
2024-02-19T09:11:24.707Z,100.00
2024-02-19T09:13:52.169Z,100.00
2024-02-19T09:16:20.103Z,100.00
2024-02-19T09:18:47.634Z,100.00
2024-02-19T09:21:15.327Z,100.00
2024-02-19T09:23:42.856Z,100.00
2024-02-19T09:26:14.838Z,100.00
2024-02-19T09:28:42.427Z,100.00
2024-02-19T09:31:10.221Z,100.00
2024-02-19T09:33:37.695Z,100.00
2024-02-19T09:36:06.705Z,100.00
2024-02-19T09:38:34.252Z,100.00
2024-02-19T09:41:05.514Z,100.00
2024-02-19T09:43:33.263Z,100.00
2024-02-19T09:46:05.115Z,100.00
2024-02-19T09:48:34.392Z,100.00
2024-02-19T09:51:04.881Z,100.00
2024-02-19T09:53:35.392Z,100.00
2024-02-19T09:56:03.228Z,100.00
2024-02-19T09:58:32.052Z,100.00
2024-02-19T10:01:00.366Z,100.00
2024-02-19T10:03:27.859Z,100.00
2024-02-19T10:05:55.721Z,100.00
2024-02-19T10:08:25.001Z,100.00
2024-02-19T10:10:57.200Z,100.00
2024-02-19T10:13:25.392Z,100.00
2024-02-19T10:15:53.506Z,100.00
2024-02-19T10:18:22.284Z,100.00
2024-02-19T10:20:54.234Z,100.00
2024-02-19T10:23:24.116Z,100.00
2024-02-19T10:25:54.894Z,100.00
2024-02-19T10:28:23.764Z,100.00
2024-02-19T10:30:52.611Z,100.00
2024-02-19T10:33:21.061Z,100.00
2024-02-19T10:35:50.683Z,100.00
2024-02-19T10:38:18.234Z,100.00
2024-02-19T10:40:46.510Z,100.00
2024-02-19T10:43:15.538Z,100.00
2024-02-19T10:45:43.768Z,100.00
2024-02-19T10:48:11.965Z,100.00
2024-02-19T10:50:39.790Z,100.00
2024-02-19T10:53:08.228Z,100.00
2024-02-19T10:55:45.944Z,100.00
2024-02-19T10:58:26.816Z,100.00
2024-02-19T11:00:59.033Z,100.00
2024-02-19T11:03:26.718Z,100.00
2024-02-19T11:06:00.033Z,100.00
2024-02-19T11:08:29.378Z,100.00
2024-02-19T11:10:58.970Z,100.00
2024-02-19T11:13:26.865Z,100.00
2024-02-19T11:15:54.888Z,100.00
2024-02-19T11:18:23.127Z,100.00
2024-02-19T11:20:51.254Z,100.00
2024-02-19T11:23:20.198Z,100.00
2024-02-19T11:25:48.252Z,100.00
2024-02-19T11:28:15.964Z,100.00
2024-02-19T11:30:43.865Z,100.00
2024-02-19T11:33:12.998Z,100.00
2024-02-19T11:35:44.860Z,100.00
2024-02-19T11:38:12.523Z,100.00
2024-02-19T11:40:40.472Z,100.00
2024-02-19T11:43:08.705Z,100.00
2024-02-19T11:45:38.276Z,100.00
2024-02-19T11:48:06.551Z,100.00
2024-02-19T11:50:34.299Z,100.00
2024-02-19T11:53:04.284Z,100.00
2024-02-19T11:55:34.934Z,100.00
2024-02-19T11:58:03.766Z,100.00
2024-02-19T12:00:32.755Z,100.00
2024-02-19T12:03:01.387Z,100.00
2024-02-19T12:05:29.690Z,100.00
2024-02-19T12:07:57.640Z,100.00
2024-02-19T12:10:25.829Z,100.00
2024-02-19T12:12:53.431Z,100.00
2024-02-19T12:15:21.273Z,100.00
2024-02-19T12:17:49.998Z,100.00
2024-02-19T12:20:19.367Z,100.00
2024-02-19T12:22:47.098Z,100.00
2024-02-19T12:25:14.982Z,100.00
2024-02-19T12:27:42.634Z,100.00
2024-02-19T12:30:10.768Z,100.00
2024-02-19T12:32:38.455Z,100.00
2024-02-19T12:35:07.097Z,100.00
2024-02-19T12:37:35.292Z,100.00
2024-02-19T12:40:04.738Z,100.00
2024-02-19T12:42:32.771Z,100.00
2024-02-19T12:45:00.470Z,100.00
2024-02-19T12:47:28.056Z,100.00
2024-02-19T12:49:56.075Z,100.00
2024-02-19T12:52:28.496Z,100.00
2024-02-19T12:54:56.859Z,100.00
2024-02-19T12:57:24.493Z,100.00
2024-02-19T12:59:52.342Z,100.00
2024-02-19T13:02:20.538Z,100.00
2024-02-19T13:04:48.568Z,100.00
2024-02-19T13:07:16.855Z,100.00
2024-02-19T13:09:45.668Z,100.00
2024-02-19T13:12:15.533Z,100.00
2024-02-19T13:14:45.057Z,100.00
2024-02-19T13:17:16.913Z,100.00
2024-02-19T13:19:49.804Z,100.00
2024-02-19T13:22:17.374Z,100.00
2024-02-19T13:24:45.644Z,100.00
2024-02-19T13:27:13.403Z,100.00
2024-02-19T13:29:41.823Z,100.00
2024-02-19T13:32:09.957Z,100.00
2024-02-19T13:34:39.336Z,100.00
2024-02-19T13:37:08.050Z,100.00
2024-02-19T13:39:36.029Z,100.00
2024-02-19T13:42:05.532Z,100.00
2024-02-19T13:44:33.496Z,100.00
2024-02-19T13:47:00.997Z,100.00
2024-02-19T13:49:29.158Z,100.00
2024-02-19T13:51:56.782Z,100.00
2024-02-19T13:54:24.595Z,100.00
2024-02-19T13:56:53.808Z,100.00
2024-02-19T13:59:21.732Z,100.00
2024-02-19T14:01:49.425Z,100.00
2024-02-19T14:04:17.842Z,100.00
2024-02-19T14:06:45.558Z,100.00
2024-02-19T14:09:13.255Z,100.00
2024-02-19T14:11:41.057Z,100.00
2024-02-19T14:14:09.010Z,100.00
2024-02-19T14:16:36.606Z,100.00
2024-02-19T14:19:04.700Z,100.00
2024-02-19T14:21:33.327Z,100.00
2024-02-19T14:24:01.661Z,100.00
2024-02-19T14:26:30.332Z,100.00
2024-02-19T14:28:59.098Z,100.00
2024-02-19T14:31:26.759Z,100.00
2024-02-19T14:33:54.752Z,100.00
2024-02-19T14:36:25.525Z,100.00
2024-02-19T14:38:54.168Z,100.00
2024-02-19T14:41:22.806Z,100.00
2024-02-19T14:43:50.771Z,100.00
2024-02-19T14:46:19.471Z,100.00
2024-02-19T14:48:47.632Z,100.00
2024-02-19T14:51:19.584Z,100.00
2024-02-19T14:53:49.185Z,100.00
2024-02-19T14:56:16.643Z,100.00
2024-02-19T14:58:44.372Z,100.00
2024-02-19T15:01:12.629Z,100.00
2024-02-19T15:03:40.337Z,100.00
2024-02-19T15:06:08.126Z,100.00
2024-02-19T15:08:35.965Z,100.00
2024-02-19T15:11:03.615Z,100.00
2024-02-19T15:13:31.770Z,100.00
2024-02-19T15:15:59.325Z,100.00
2024-02-19T15:18:27.448Z,100.00
2024-02-19T15:20:55.241Z,100.00
2024-02-19T15:23:23.136Z,100.00
2024-02-19T15:25:50.818Z,100.00
2024-02-19T15:28:19.111Z,100.00
2024-02-19T15:30:47.792Z,100.00
2024-02-19T15:33:15.919Z,100.00
2024-02-19T15:35:45.244Z,100.00
2024-02-19T15:38:13.965Z,100.00
2024-02-19T15:40:41.519Z,100.00
2024-02-19T15:43:09.308Z,100.00
2024-02-19T15:45:37.260Z,100.00
2024-02-19T15:48:05.882Z,100.00
2024-02-19T15:50:33.868Z,100.00
2024-02-19T15:53:06.314Z,100.00
2024-02-19T15:55:35.339Z,100.00
2024-02-19T15:58:03.164Z,100.00
2024-02-19T16:00:32.543Z,100.00
2024-02-19T16:03:00.214Z,100.00
2024-02-19T16:05:28.008Z,100.00
2024-02-19T16:07:55.839Z,100.00
2024-02-19T16:10:23.681Z,100.00
2024-02-19T16:12:52.324Z,100.00
2024-02-19T16:15:21.485Z,100.00
2024-02-19T16:17:49.556Z,100.00
2024-02-19T16:20:17.144Z,100.00
2024-02-19T16:22:48.232Z,100.00
2024-02-19T16:25:15.816Z,100.00
2024-02-19T16:27:43.864Z,100.00
2024-02-19T16:30:14.206Z,100.00
2024-02-19T16:32:42.174Z,100.00
2024-02-19T16:35:11.472Z,100.00
2024-02-19T16:37:39.785Z,100.00
2024-02-19T16:40:08.190Z,100.00
2024-02-19T16:42:39.240Z,100.00
2024-02-19T16:45:07.350Z,100.00
2024-02-19T16:47:35.168Z,100.00
2024-02-19T16:50:02.793Z,100.00
2024-02-19T16:52:30.815Z,100.00
2024-02-19T16:54:58.276Z,100.00
2024-02-19T16:57:27.114Z,100.00
2024-02-19T16:59:54.443Z,100.00
2024-02-19T17:02:23.158Z,100.00
2024-02-19T17:04:52.880Z,100.00
2024-02-19T17:07:21.198Z,100.00
2024-02-19T17:09:49.227Z,100.00
2024-02-19T17:12:16.950Z,100.00
2024-02-19T17:14:46.137Z,100.00
2024-02-19T17:17:13.756Z,100.00
2024-02-19T17:19:41.376Z,100.00
2024-02-19T17:22:09.437Z,100.00
2024-02-19T17:24:40.729Z,100.00
2024-02-19T17:27:09.068Z,100.00
2024-02-19T17:29:36.771Z,100.00
2024-02-19T17:32:05.277Z,100.00
2024-02-19T17:34:33.022Z,100.00
2024-02-19T17:37:01.551Z,100.00
2024-02-19T17:39:28.999Z,100.00
2024-02-19T17:41:57.166Z,100.00
2024-02-19T17:44:25.149Z,100.00
2024-02-19T17:46:55.616Z,100.00
2024-02-19T17:49:23.441Z,100.00
2024-02-19T17:51:53.649Z,100.00
2024-02-19T17:54:21.753Z,100.00
2024-02-19T17:56:49.673Z,100.00
2024-02-19T17:59:17.315Z,100.00
2024-02-19T18:01:45.179Z,100.00
2024-02-19T18:04:17.404Z,100.00
2024-02-19T18:06:45.958Z,100.00
2024-02-19T18:09:13.416Z,100.00
2024-02-19T18:11:41.398Z,100.00
2024-02-19T18:14:09.168Z,100.00
2024-02-19T18:16:39.921Z,100.00
2024-02-19T18:19:08.022Z,100.00
2024-02-19T18:21:36.629Z,100.00
2024-02-19T18:24:09.322Z,100.00
2024-02-19T18:26:37.076Z,100.00
2024-02-19T18:29:04.778Z,100.00
2024-02-19T18:31:33.177Z,100.00
2024-02-19T18:34:01.869Z,100.00
2024-02-19T18:36:29.916Z,100.00
2024-02-19T18:38:57.230Z,100.00
2024-02-19T18:41:25.469Z,100.00
2024-02-19T18:43:52.970Z,100.00
2024-02-19T18:46:21.441Z,100.00
2024-02-19T18:48:49.031Z,100.00
2024-02-19T18:51:16.861Z,100.00
2024-02-19T18:53:44.282Z,100.00
2024-02-19T18:56:12.038Z,100.00
2024-02-19T18:58:39.630Z,100.00
2024-02-19T19:01:08.486Z,100.00
2024-02-19T19:03:36.056Z,100.00
2024-02-19T19:06:04.745Z,100.00
2024-02-19T19:08:32.591Z,100.00
2024-02-19T19:11:00.461Z,100.00
2024-02-19T19:13:29.497Z,100.00
2024-02-19T19:15:57.489Z,100.00
2024-02-19T19:18:25.701Z,100.00
2024-02-19T19:20:53.789Z,100.00
2024-02-19T19:23:21.336Z,100.00
2024-02-19T19:25:49.504Z,100.00
2024-02-19T19:28:17.699Z,100.00
2024-02-19T19:30:46.541Z,100.00
2024-02-19T19:33:15.714Z,100.00
2024-02-19T19:35:49.074Z,100.00
2024-02-19T19:38:17.470Z,100.00
2024-02-19T19:40:45.506Z,100.00
2024-02-19T19:43:13.113Z,100.00
2024-02-19T19:45:41.124Z,100.00
2024-02-19T19:48:09.064Z,100.00
2024-02-19T19:50:37.139Z,100.00
2024-02-19T19:53:05.004Z,100.00
2024-02-19T19:55:32.748Z,100.00
2024-02-19T19:58:00.373Z,100.00
2024-02-19T20:00:28.688Z,100.00
2024-02-19T20:02:58.317Z,100.00
2024-02-19T20:05:26.166Z,100.00
2024-02-19T20:07:53.923Z,100.00
2024-02-19T20:10:21.816Z,100.00
2024-02-19T20:12:50.914Z,100.00
2024-02-19T20:15:18.923Z,100.00
2024-02-19T20:17:46.567Z,100.00
2024-02-19T20:20:14.533Z,100.00
2024-02-19T20:22:42.158Z,100.00
2024-02-19T20:25:10.446Z,100.00
2024-02-19T20:27:38.589Z,100.00
2024-02-19T20:30:08.058Z,100.00
2024-02-19T20:32:35.699Z,100.00
2024-02-19T20:35:03.643Z,100.00
2024-02-19T20:37:31.187Z,100.00
2024-02-19T20:40:02.921Z,100.00
2024-02-19T20:42:30.616Z,100.00
2024-02-19T20:44:59.060Z,100.00
2024-02-19T20:47:26.801Z,100.00
2024-02-19T20:49:55.590Z,100.00
2024-02-19T20:52:23.484Z,100.00
2024-02-19T20:54:53.420Z,100.00
2024-02-19T20:57:21.365Z,100.00
2024-02-19T20:59:49.369Z,100.00
2024-02-19T21:02:16.806Z,100.00
2024-02-19T21:04:44.829Z,100.00
2024-02-19T21:07:12.454Z,100.00
2024-02-19T21:09:40.446Z,100.00
2024-02-19T21:12:08.637Z,100.00
2024-02-19T21:14:36.579Z,100.00
2024-02-19T21:17:04.264Z,100.00
2024-02-19T21:19:33.802Z,100.00
2024-02-19T21:22:01.690Z,100.00
2024-02-19T21:24:29.480Z,100.00
2024-02-19T21:26:59.143Z,100.00
2024-02-19T21:29:30.019Z,100.00
2024-02-19T21:31:58.212Z,100.00
2024-02-19T21:34:26.149Z,100.00
2024-02-19T21:36:57.842Z,100.00
2024-02-19T21:39:26.532Z,100.00
2024-02-19T21:41:54.053Z,100.00
2024-02-19T21:44:23.185Z,100.00
2024-02-19T21:46:50.784Z,100.00
2024-02-19T21:49:20.822Z,100.00
2024-02-19T21:51:49.339Z,100.00
2024-02-19T21:54:17.305Z,100.00
2024-02-19T21:56:44.826Z,100.00
2024-02-19T21:59:12.556Z,100.00
2024-02-19T22:01:40.225Z,100.00
2024-02-19T22:04:09.463Z,100.00
2024-02-19T22:06:37.066Z,100.00
2024-02-19T22:09:04.750Z,100.00
2024-02-19T22:11:32.317Z,100.00
2024-02-19T22:14:00.889Z,100.00
2024-02-19T22:16:28.414Z,100.00
2024-02-19T22:18:56.170Z,100.00
2024-02-19T22:21:23.710Z,100.00
2024-02-19T22:23:51.404Z,100.00
2024-02-19T22:26:18.867Z,100.00
2024-02-19T22:28:46.865Z,100.00
2024-02-19T22:31:14.358Z,100.00
2024-02-19T22:33:42.144Z,100.00
2024-02-19T22:36:09.896Z,100.00
2024-02-19T22:38:37.615Z,100.00
2024-02-19T22:41:05.124Z,100.00
2024-02-19T22:43:32.842Z,100.00
2024-02-19T22:46:00.278Z,100.00
2024-02-19T22:48:29.461Z,100.00
2024-02-19T22:50:57.031Z,100.00
2024-02-19T22:53:24.773Z,100.00
2024-02-19T22:55:52.419Z,100.00
2024-02-19T22:58:31.078Z,100.00
2024-02-19T23:01:03.231Z,100.00
2024-02-19T23:03:31.275Z,100.00
2024-02-19T23:05:58.883Z,100.00
2024-02-19T23:08:26.763Z,100.00
2024-02-19T23:10:55.951Z,100.00
2024-02-19T23:13:24.054Z,100.00
2024-02-19T23:15:51.623Z,100.00
2024-02-19T23:18:19.583Z,100.00
2024-02-19T23:20:47.121Z,100.00
2024-02-19T23:23:14.741Z,100.00
2024-02-19T23:25:42.501Z,100.00
2024-02-19T23:28:10.248Z,100.00
2024-02-19T23:30:37.764Z,100.00
2024-02-19T23:33:05.888Z,100.00
2024-02-19T23:35:34.399Z,100.00
2024-02-19T23:38:02.024Z,100.00
2024-02-19T23:40:29.758Z,100.00
2024-02-19T23:42:57.606Z,100.00
2024-02-19T23:45:25.082Z,100.00
2024-02-19T23:47:53.189Z,100.00
2024-02-19T23:50:20.900Z,100.00
2024-02-19T23:52:49.055Z,100.00
2024-02-19T23:55:18.310Z,100.00
2024-02-19T23:57:46.284Z,100.00
